createdAt,value
2022-10-09T00:01:32.568Z,2.10
2022-10-09T00:04:01.456Z,2.47
2022-10-09T00:06:34.842Z,2.70
2022-10-09T00:09:05.118Z,2.40
2022-10-09T00:11:35.529Z,2.43
2022-10-09T00:14:06.010Z,2.67
2022-10-09T00:16:34.590Z,2.60
2022-10-09T00:19:02.896Z,2.33
2022-10-09T00:21:33.476Z,3.00
2022-10-09T00:24:05.770Z,2.77
2022-10-09T00:26:34.972Z,2.10
2022-10-09T00:29:05.266Z,2.50
2022-10-09T00:31:33.638Z,2.47
2022-10-09T00:34:01.920Z,2.30
2022-10-09T00:36:30.244Z,2.50
2022-10-09T00:38:58.611Z,2.10
2022-10-09T00:41:31.024Z,2.10
2022-10-09T00:44:02.575Z,2.10
2022-10-09T00:46:40.954Z,2.17
2022-10-09T00:49:22.188Z,2.17
2022-10-09T00:51:53.003Z,2.40
2022-10-09T00:54:25.470Z,2.50
2022-10-09T00:56:54.499Z,2.13
2022-10-09T00:59:23.214Z,2.30
2022-10-09T01:01:52.951Z,2.57
2022-10-09T01:04:21.278Z,2.13
2022-10-09T01:07:05.852Z,2.30
2022-10-09T01:09:43.523Z,2.40
2022-10-09T01:12:23.406Z,2.30
2022-10-09T01:15:06.161Z,2.07
2022-10-09T01:17:43.402Z,1.77
2022-10-09T01:20:41.903Z,2.13
2022-10-09T01:24:01.988Z,2.23
2022-10-09T01:26:52.104Z,1.93
2022-10-09T01:29:21.661Z,2.03
2022-10-09T01:31:52.291Z,2.67
2022-10-09T01:34:22.392Z,2.23
2022-10-09T01:36:52.612Z,2.20
2022-10-09T01:39:23.947Z,1.93
2022-10-09T01:41:54.831Z,2.40
2022-10-09T01:44:26.268Z,2.87
2022-10-09T01:46:54.836Z,2.60
2022-10-09T01:49:42.026Z,2.63
2022-10-09T01:52:46.302Z,2.33
2022-10-09T01:55:29.498Z,2.80
2022-10-09T01:58:06.941Z,2.40
2022-10-09T02:00:38.822Z,2.37
2022-10-09T02:03:11.603Z,2.20
2022-10-09T02:05:42.259Z,2.27
2022-10-09T02:08:13.850Z,2.40
2022-10-09T02:10:43.553Z,2.33
2022-10-09T02:13:13.648Z,2.30
2022-10-09T02:15:49.882Z,2.10
2022-10-09T02:18:28.060Z,2.10
2022-10-09T02:21:02.204Z,2.60
2022-10-09T02:23:31.049Z,2.40
2022-10-09T02:25:59.932Z,2.20
2022-10-09T02:28:30.521Z,2.37
2022-10-09T02:31:05.679Z,2.23
2022-10-09T02:33:35.253Z,2.40
2022-10-09T02:36:04.571Z,2.40
2022-10-09T02:38:32.827Z,2.67
2022-10-09T02:41:01.758Z,2.77
2022-10-09T02:43:31.346Z,2.00
2022-10-09T02:45:59.727Z,2.00
2022-10-09T02:48:28.031Z,2.27
2022-10-09T02:50:56.292Z,1.90
2022-10-09T02:53:24.651Z,2.30
2022-10-09T02:55:52.946Z,1.90
2022-10-09T02:58:21.209Z,2.00
2022-10-09T03:00:52.076Z,2.20
2022-10-09T03:03:21.756Z,2.23
2022-10-09T03:05:50.059Z,2.50
2022-10-09T03:08:18.464Z,2.40
2022-10-09T03:10:46.704Z,1.90
2022-10-09T03:13:14.894Z,1.90
2022-10-09T03:15:43.172Z,2.20
2022-10-09T03:18:13.186Z,2.20
2022-10-09T03:20:41.437Z,2.20
2022-10-09T03:23:09.631Z,1.87
2022-10-09T03:25:37.922Z,1.67
2022-10-09T03:28:06.269Z,2.03
2022-10-09T03:30:34.590Z,2.20
2022-10-09T03:33:03.076Z,2.10
2022-10-09T03:35:32.740Z,2.37
2022-10-09T03:38:00.931Z,2.07
2022-10-09T03:40:29.189Z,2.00
2022-10-09T03:42:57.386Z,1.80
2022-10-09T03:45:25.840Z,2.00
2022-10-09T03:47:54.226Z,2.20
2022-10-09T03:50:22.435Z,2.23
2022-10-09T03:52:52.164Z,1.83
2022-10-09T03:55:20.417Z,2.23
2022-10-09T03:57:48.656Z,2.20
2022-10-09T04:00:17.278Z,2.40
2022-10-09T04:02:45.601Z,1.90
2022-10-09T04:05:13.940Z,1.90
2022-10-09T04:07:42.157Z,2.43
2022-10-09T04:10:12.285Z,2.30
2022-10-09T04:12:40.693Z,2.33
2022-10-09T04:15:10.636Z,2.60
2022-10-09T04:17:38.945Z,2.50
2022-10-09T04:20:08.415Z,2.50
2022-10-09T04:22:36.606Z,2.50
2022-10-09T04:25:05.331Z,2.50
2022-10-09T04:27:34.906Z,2.70
2022-10-09T04:30:03.217Z,2.53
2022-10-09T04:32:31.417Z,2.47
2022-10-09T04:34:59.664Z,2.13
2022-10-09T04:37:27.880Z,2.30
2022-10-09T04:39:56.127Z,2.37
2022-10-09T04:42:24.447Z,2.60
2022-10-09T04:44:54.055Z,2.83
2022-10-09T04:47:22.257Z,2.47
2022-10-09T04:49:50.543Z,2.60
2022-10-09T04:52:18.759Z,3.00
2022-10-09T04:54:47.000Z,2.27
2022-10-09T04:57:15.215Z,2.30
2022-10-09T04:59:43.424Z,2.57
2022-10-09T05:02:13.056Z,2.53
2022-10-09T05:04:41.346Z,2.93
2022-10-09T05:07:09.592Z,2.73
2022-10-09T05:09:37.806Z,2.90
2022-10-09T05:12:07.009Z,3.13
2022-10-09T05:14:35.225Z,3.10
2022-10-09T05:17:23.215Z,2.70
2022-10-09T05:19:53.264Z,2.83
2022-10-09T05:22:21.512Z,2.83
2022-10-09T05:24:49.699Z,2.93
2022-10-09T05:27:17.941Z,2.53
2022-10-09T05:29:46.146Z,2.70
2022-10-09T05:32:14.712Z,2.77
2022-10-09T05:34:42.972Z,3.17
2022-10-09T05:37:12.560Z,2.47
2022-10-09T05:39:40.811Z,3.07
2022-10-09T05:42:09.031Z,2.87
2022-10-09T05:44:37.463Z,2.50
2022-10-09T05:47:05.796Z,2.77
2022-10-09T05:49:34.063Z,3.03
2022-10-09T05:52:02.300Z,2.60
2022-10-09T05:54:32.033Z,3.03
2022-10-09T05:57:00.260Z,2.83
2022-10-09T05:59:28.649Z,2.83
2022-10-09T06:01:57.025Z,3.57
2022-10-09T06:04:26.193Z,3.10
2022-10-09T06:06:54.467Z,3.13
2022-10-09T06:09:25.542Z,4.00
2022-10-09T06:11:56.235Z,4.00
2022-10-09T06:14:25.071Z,3.67
2022-10-09T06:16:53.674Z,3.37
2022-10-09T06:19:22.966Z,3.93
2022-10-09T06:21:51.904Z,4.07
2022-10-09T06:24:27.292Z,3.97
2022-10-09T06:26:59.043Z,4.17
2022-10-09T06:29:27.738Z,4.43
2022-10-09T06:31:55.931Z,4.80
2022-10-09T06:34:24.475Z,4.83
2022-10-09T06:36:52.701Z,4.80
2022-10-09T06:39:21.128Z,4.10
2022-10-09T06:41:49.516Z,4.67
2022-10-09T06:44:19.393Z,4.20
2022-10-09T06:46:50.832Z,3.57
2022-10-09T06:49:19.121Z,3.57
2022-10-09T06:51:47.385Z,3.53
2022-10-09T06:54:17.364Z,3.13
2022-10-09T06:56:46.203Z,3.60
2022-10-09T06:59:14.494Z,3.57
2022-10-09T07:01:44.136Z,3.90
2022-10-09T07:04:14.814Z,4.87
2022-10-09T07:06:45.304Z,4.70
2022-10-09T07:09:15.362Z,3.53
2022-10-09T07:11:46.076Z,4.83
2022-10-09T07:14:15.918Z,3.97
2022-10-09T07:16:48.375Z,3.57
2022-10-09T07:19:18.276Z,4.23
2022-10-09T07:21:48.629Z,5.00
2022-10-09T07:24:20.389Z,4.40
2022-10-09T07:26:49.224Z,4.20
2022-10-09T07:29:19.603Z,4.87
2022-10-09T07:31:49.861Z,4.57
2022-10-09T07:34:18.124Z,3.73
2022-10-09T07:36:46.384Z,3.60
2022-10-09T07:39:14.656Z,3.47
2022-10-09T07:41:43.398Z,3.63
2022-10-09T07:44:12.139Z,3.60
2022-10-09T07:46:40.494Z,3.50
2022-10-09T07:49:10.540Z,3.90
2022-10-09T07:51:38.993Z,3.40
2022-10-09T07:54:07.314Z,3.33
2022-10-09T07:56:37.949Z,3.40
2022-10-09T07:59:08.531Z,3.37
2022-10-09T08:01:37.369Z,3.93
2022-10-09T08:04:06.678Z,3.73
2022-10-09T08:06:36.740Z,3.77
2022-10-09T08:09:07.475Z,3.77
2022-10-09T08:11:40.412Z,3.53
2022-10-09T08:14:09.278Z,3.10
2022-10-09T08:16:37.502Z,3.17
2022-10-09T08:19:05.843Z,2.90
2022-10-09T08:21:35.471Z,3.20
2022-10-09T08:24:03.756Z,3.20
2022-10-09T08:26:32.524Z,3.80
2022-10-09T08:29:03.012Z,3.30
2022-10-09T08:31:32.902Z,3.07
2022-10-09T08:34:03.715Z,3.17
2022-10-09T08:36:32.893Z,3.00
2022-10-09T08:39:02.499Z,3.63
2022-10-09T08:41:44.810Z,2.93
2022-10-09T08:44:19.674Z,3.37
2022-10-09T08:47:09.098Z,3.57
2022-10-09T08:49:46.266Z,3.23
2022-10-09T08:52:26.808Z,3.30
2022-10-09T08:55:17.838Z,4.00
2022-10-09T08:57:50.735Z,3.50
2022-10-09T09:00:22.149Z,3.10
2022-10-09T09:03:29.121Z,3.40
2022-10-09T09:06:06.148Z,3.70
2022-10-09T09:08:46.403Z,3.30
2022-10-09T09:11:25.085Z,3.23
2022-10-09T09:14:08.854Z,4.20
2022-10-09T09:16:45.442Z,7.90
2022-10-09T09:19:38.489Z,15.53
2022-10-09T09:22:11.586Z,26.37
2022-10-09T09:24:44.580Z,9.37
2022-10-09T09:27:19.233Z,39.30
2022-10-09T09:29:55.756Z,17.97
2022-10-09T09:32:27.700Z,4.20
2022-10-09T09:35:06.598Z,3.40
2022-10-09T09:37:37.468Z,3.00
2022-10-09T09:40:35.443Z,2.47
2022-10-09T09:42:59.782Z,3.10
2022-10-09T09:45:30.999Z,2.57
2022-10-09T09:48:05.659Z,3.20
2022-10-09T09:50:53.016Z,2.50
2022-10-09T09:53:31.740Z,2.43
2022-10-09T09:56:00.981Z,3.07
2022-10-09T09:58:35.847Z,2.90
2022-10-09T10:01:06.502Z,3.30
2022-10-09T10:03:36.622Z,2.67
2022-10-09T10:06:05.433Z,2.80
2022-10-09T10:08:35.342Z,2.67
2022-10-09T10:11:08.517Z,2.63
2022-10-09T10:13:46.491Z,3.90
2022-10-09T10:16:24.562Z,3.20
2022-10-09T10:18:53.074Z,3.07
2022-10-09T10:21:23.091Z,3.23
2022-10-09T10:23:57.405Z,2.60
2022-10-09T10:26:30.771Z,2.90
2022-10-09T10:29:10.271Z,2.60
2022-10-09T10:31:52.407Z,2.40
2022-10-09T10:34:27.538Z,2.40
2022-10-09T10:37:03.532Z,2.40
2022-10-09T10:39:42.009Z,2.60
2022-10-09T10:42:16.627Z,2.23
2022-10-09T10:44:59.488Z,2.67
2022-10-09T10:47:32.304Z,2.60
2022-10-09T10:50:00.580Z,2.83
2022-10-09T10:52:41.496Z,3.80
2022-10-09T10:55:28.930Z,2.50
2022-10-09T10:58:11.303Z,2.77
2022-10-09T11:00:50.397Z,2.43
2022-10-09T11:03:58.657Z,2.83
2022-10-09T11:06:34.701Z,2.60
2022-10-09T11:09:12.894Z,2.07
2022-10-09T11:11:47.656Z,2.70
2022-10-09T11:14:30.061Z,2.87
2022-10-09T11:17:10.307Z,2.50
2022-10-09T11:19:58.507Z,2.03
2022-10-09T11:22:43.549Z,2.50
2022-10-09T11:25:26.369Z,2.60
2022-10-09T11:28:00.166Z,2.50
2022-10-09T11:30:32.762Z,2.43
2022-10-09T11:33:07.227Z,4.40
2022-10-09T11:35:43.798Z,2.70
2022-10-09T11:38:27.504Z,4.80
2022-10-09T11:40:56.941Z,3.93
2022-10-09T11:43:53.928Z,3.40
2022-10-09T11:46:35.950Z,2.70
2022-10-09T11:49:14.532Z,3.00
2022-10-09T11:51:49.153Z,3.03
2022-10-09T11:54:21.331Z,2.60
2022-10-09T11:56:58.567Z,2.77
2022-10-09T11:59:30.758Z,2.30
2022-10-09T12:02:01.260Z,2.47
2022-10-09T12:07:32.533Z,2.70
2022-10-09T12:10:07.226Z,2.73
2022-10-09T12:12:37.783Z,2.67
2022-10-09T12:15:25.967Z,2.30
2022-10-09T12:17:54.368Z,4.43
2022-10-09T12:20:26.716Z,11.50
2022-10-09T12:23:25.310Z,4.43
2022-10-09T12:25:51.258Z,2.07
2022-10-09T12:28:30.227Z,2.30
2022-10-09T12:31:01.162Z,2.00
2022-10-09T12:33:36.367Z,1.73
2022-10-09T12:36:14.854Z,1.80
2022-10-09T12:38:44.016Z,2.07
2022-10-09T12:41:20.972Z,2.00
2022-10-09T12:43:51.237Z,1.93
2022-10-09T12:46:29.875Z,1.80
2022-10-09T12:48:58.803Z,1.70
2022-10-09T12:51:32.636Z,1.93
2022-10-09T12:54:00.852Z,1.73
2022-10-09T12:56:33.555Z,1.57
2022-10-09T12:59:02.932Z,2.00
2022-10-09T13:01:31.783Z,2.10
2022-10-09T13:04:04.281Z,2.13
2022-10-09T13:06:43.291Z,1.63
2022-10-09T13:09:22.724Z,1.60
2022-10-09T13:11:57.964Z,1.97
2022-10-09T13:14:34.500Z,1.97
2022-10-09T13:17:03.372Z,1.97
2022-10-09T13:19:35.361Z,2.10
2022-10-09T13:22:20.184Z,1.83
2022-10-09T13:24:53.081Z,1.53
2022-10-09T13:27:22.170Z,1.47
2022-10-09T13:29:50.610Z,1.67
2022-10-09T13:32:19.971Z,1.80
2022-10-09T13:34:48.518Z,1.30
2022-10-09T13:37:20.192Z,1.90
2022-10-09T13:39:48.721Z,1.50
2022-10-09T13:42:18.474Z,1.70
2022-10-09T13:44:46.867Z,1.90
2022-10-09T13:47:15.161Z,1.40
2022-10-09T13:49:43.439Z,2.30
2022-10-09T13:52:12.050Z,1.60
2022-10-09T13:54:41.995Z,2.87
2022-10-09T13:57:10.257Z,2.20
2022-10-09T13:59:38.514Z,1.93
2022-10-09T14:02:06.842Z,1.87
2022-10-09T14:04:35.086Z,1.63
2022-10-09T14:07:03.291Z,2.10
2022-10-09T14:09:31.755Z,1.80
2022-10-09T14:12:01.329Z,2.00
2022-10-09T14:14:29.569Z,1.60
2022-10-09T14:16:57.831Z,1.57
2022-10-09T14:19:27.798Z,2.07
2022-10-09T14:21:56.193Z,1.87
2022-10-09T14:24:25.278Z,1.80
2022-10-09T14:26:53.772Z,1.90
2022-10-09T14:29:23.396Z,1.37
2022-10-09T14:31:52.579Z,1.97
2022-10-09T14:34:20.817Z,2.10
2022-10-09T14:36:49.903Z,1.90
2022-10-09T14:39:18.259Z,1.90
2022-10-09T14:41:46.671Z,1.90
2022-10-09T14:44:15.077Z,2.03
2022-10-09T14:46:44.668Z,2.07
2022-10-09T14:49:15.625Z,1.77
2022-10-09T14:51:43.979Z,1.93
2022-10-09T14:54:14.619Z,2.00
2022-10-09T14:56:42.909Z,2.03
2022-10-09T14:59:11.126Z,1.90
2022-10-09T15:01:39.545Z,2.07
2022-10-09T15:04:09.216Z,2.47
2022-10-09T15:06:37.551Z,2.57
2022-10-09T15:09:06.451Z,2.07
2022-10-09T15:11:36.083Z,1.93
2022-10-09T15:14:05.193Z,1.70
2022-10-09T15:16:33.733Z,1.97
2022-10-09T15:19:02.325Z,2.10
2022-10-09T15:21:33.649Z,1.97
2022-10-09T15:24:03.829Z,2.00
2022-10-09T15:26:35.666Z,1.70
2022-10-09T15:29:05.527Z,1.87
2022-10-09T15:31:38.707Z,2.10
2022-10-09T15:34:09.694Z,2.50
2022-10-09T15:36:43.104Z,2.10
2022-10-09T15:39:11.827Z,2.03
2022-10-09T15:41:42.756Z,2.00
2022-10-09T15:44:16.929Z,1.80
2022-10-09T15:46:46.354Z,2.00
2022-10-09T15:49:14.818Z,2.10
2022-10-09T15:51:44.573Z,2.13
2022-10-09T15:54:14.381Z,3.00
2022-10-09T15:56:42.811Z,3.00
2022-10-09T15:59:13.765Z,2.63
2022-10-09T16:01:42.145Z,2.80
2022-10-09T16:04:10.818Z,2.47
2022-10-09T16:06:39.163Z,2.10
2022-10-09T16:09:09.031Z,2.13
2022-10-09T16:11:37.361Z,2.00
2022-10-09T16:14:05.667Z,2.27
2022-10-09T16:16:33.938Z,1.67
2022-10-09T16:19:05.138Z,2.17
2022-10-09T16:21:33.837Z,2.50
2022-10-09T16:24:02.187Z,2.90
2022-10-09T16:26:31.919Z,2.57
2022-10-09T16:29:01.625Z,2.70
2022-10-09T16:31:34.716Z,2.63
2022-10-09T16:34:04.313Z,2.73
2022-10-09T16:36:32.662Z,3.33
2022-10-09T16:39:01.051Z,3.43
2022-10-09T16:41:29.567Z,3.20
2022-10-09T16:44:00.287Z,2.40
2022-10-09T16:49:03.068Z,2.87
2022-10-09T16:51:34.279Z,2.80
2022-10-09T16:54:05.567Z,3.03
2022-10-09T16:56:36.772Z,2.90
2022-10-09T16:59:11.136Z,4.40
2022-10-09T17:01:43.605Z,3.20
2022-10-09T17:04:13.158Z,3.50
2022-10-09T17:06:42.613Z,4.10
2022-10-09T17:09:13.929Z,4.00
2022-10-09T17:11:43.506Z,4.43
2022-10-09T17:14:14.352Z,9.40
2022-10-09T17:16:44.309Z,9.13
2022-10-09T17:19:12.592Z,5.00
2022-10-09T17:21:41.532Z,3.77
2022-10-09T17:24:12.697Z,2.80
2022-10-09T17:26:41.039Z,2.53
2022-10-09T17:29:09.383Z,2.80
2022-10-09T17:31:39.058Z,2.20
2022-10-09T17:34:08.092Z,2.50
2022-10-09T17:36:40.579Z,3.40
2022-10-09T17:39:14.024Z,13.33
2022-10-09T17:41:43.312Z,13.90
2022-10-09T17:44:11.949Z,13.90
2022-10-09T17:46:41.648Z,8.27
2022-10-09T17:49:10.534Z,7.00
2022-10-09T17:51:40.872Z,6.53
2022-10-09T17:54:13.342Z,7.20
2022-10-09T17:56:42.568Z,6.30
2022-10-09T17:59:12.011Z,7.13
2022-10-09T18:01:41.909Z,6.80
2022-10-09T18:04:15.568Z,7.77
2022-10-09T18:06:43.959Z,3.40
2022-10-09T18:09:12.739Z,3.50
2022-10-09T18:11:41.066Z,3.10
2022-10-09T18:14:10.420Z,2.50
2022-10-09T18:16:38.919Z,3.20
2022-10-09T18:19:12.294Z,2.73
2022-10-09T18:21:42.713Z,3.17
2022-10-09T18:24:11.372Z,2.83
2022-10-09T18:26:39.781Z,3.40
2022-10-09T18:29:08.362Z,3.13
2022-10-09T18:31:37.806Z,3.30
2022-10-09T18:34:06.242Z,3.30
2022-10-09T18:36:36.286Z,3.07
2022-10-09T18:39:09.752Z,5.47
2022-10-09T18:41:38.858Z,3.93
2022-10-09T18:44:12.612Z,3.13
2022-10-09T18:46:45.032Z,3.33
2022-10-09T18:49:17.519Z,3.50
2022-10-09T18:51:48.631Z,2.70
2022-10-09T18:54:18.493Z,3.23
2022-10-09T18:56:47.663Z,5.90
2022-10-09T18:59:20.039Z,3.77
2022-10-09T19:01:48.388Z,3.37
2022-10-09T19:04:16.934Z,3.00
2022-10-09T19:06:46.676Z,2.90
2022-10-09T19:09:16.355Z,1.93
2022-10-09T19:11:44.925Z,2.80
2022-10-09T19:14:13.268Z,3.20
2022-10-09T19:16:41.624Z,2.40
2022-10-09T19:19:09.955Z,2.20
2022-10-09T19:21:43.715Z,2.67
2022-10-09T19:24:14.503Z,1.90
2022-10-09T19:26:43.637Z,1.80
2022-10-09T19:29:12.083Z,1.83
2022-10-09T19:31:40.412Z,1.77
2022-10-09T19:34:09.131Z,2.10
2022-10-09T19:36:37.698Z,2.07
2022-10-09T19:39:08.115Z,2.20
2022-10-09T19:41:37.884Z,1.83
2022-10-09T19:44:06.344Z,1.93
2022-10-09T19:46:37.088Z,1.90
2022-10-09T19:49:05.846Z,2.23
2022-10-09T19:51:37.037Z,2.10
2022-10-09T19:54:06.875Z,2.03
2022-10-09T19:56:38.289Z,2.77
2022-10-09T19:59:09.641Z,2.77
2022-10-09T20:01:40.273Z,3.90
2022-10-09T20:04:11.910Z,4.93
2022-10-09T20:06:42.644Z,3.93
2022-10-09T20:09:13.013Z,4.20
2022-10-09T20:11:42.889Z,3.00
2022-10-09T20:14:11.930Z,2.90
2022-10-09T20:16:40.465Z,3.37
2022-10-09T20:19:08.985Z,2.43
2022-10-09T20:21:37.351Z,2.40
2022-10-09T20:24:07.108Z,2.43
2022-10-09T20:26:37.704Z,2.50
2022-10-09T20:29:10.585Z,2.83
2022-10-09T20:31:38.857Z,2.30
2022-10-09T20:34:07.114Z,2.30
2022-10-09T20:36:39.120Z,2.23
2022-10-09T20:39:10.030Z,2.00
2022-10-09T20:41:39.507Z,2.47
2022-10-09T20:44:08.269Z,2.57
2022-10-09T20:46:39.853Z,2.60
2022-10-09T20:49:12.230Z,2.43
2022-10-09T20:51:41.142Z,2.60
2022-10-09T20:54:13.779Z,2.40
2022-10-09T20:56:42.096Z,2.93
2022-10-09T20:59:10.301Z,4.63
2022-10-09T21:01:40.023Z,8.63
2022-10-09T21:04:15.423Z,11.97
2022-10-09T21:06:44.450Z,15.83
2022-10-09T21:09:12.746Z,8.90
2022-10-09T21:11:41.609Z,7.47
2022-10-09T21:14:11.408Z,5.77
2022-10-09T21:16:41.141Z,3.80
2022-10-09T21:19:11.591Z,3.47
2022-10-09T21:21:39.913Z,3.10
2022-10-09T21:24:08.292Z,3.90
2022-10-09T21:26:36.502Z,3.90
2022-10-09T21:29:05.667Z,4.20
2022-10-09T21:31:34.608Z,4.27
2022-10-09T21:34:04.297Z,3.93
2022-10-09T21:36:47.128Z,3.53
2022-10-09T21:39:27.281Z,3.87
2022-10-09T21:41:56.067Z,3.70
2022-10-09T21:44:24.369Z,3.33
2022-10-09T21:46:52.627Z,3.37
2022-10-09T21:49:24.620Z,3.10
2022-10-09T21:51:53.152Z,2.90
2022-10-09T21:54:22.355Z,2.30
2022-10-09T21:56:50.634Z,1.97
2022-10-09T21:59:19.251Z,1.70
2022-10-09T22:01:47.523Z,2.03
2022-10-09T22:04:15.847Z,1.80
2022-10-09T22:06:45.554Z,2.40
2022-10-09T22:09:13.863Z,2.13
2022-10-09T22:11:44.359Z,2.07
2022-10-09T22:14:13.037Z,3.60
2022-10-09T22:16:41.231Z,3.17
2022-10-09T22:19:09.480Z,3.90
2022-10-09T22:21:37.864Z,3.43
2022-10-09T22:24:07.689Z,3.80
2022-10-09T22:26:35.933Z,3.73
2022-10-09T22:29:04.331Z,3.93
2022-10-09T22:31:32.682Z,3.17
2022-10-09T22:34:02.656Z,3.40
2022-10-09T22:36:33.607Z,2.70
2022-10-09T22:39:05.519Z,2.40
2022-10-09T22:41:36.715Z,2.40
2022-10-09T22:44:07.020Z,2.63
2022-10-09T22:46:37.423Z,2.10
2022-10-09T22:49:07.380Z,2.27
2022-10-09T22:51:35.836Z,2.20
2022-10-09T22:54:04.756Z,2.40
2022-10-09T22:56:36.901Z,2.10
2022-10-09T22:59:05.411Z,2.10
2022-10-09T23:01:37.869Z,2.47
2022-10-09T23:04:09.043Z,2.03
2022-10-09T23:06:37.302Z,2.00
2022-10-09T23:09:07.687Z,2.20
2022-10-09T23:11:37.796Z,2.20
2022-10-09T23:14:09.495Z,2.37
2022-10-09T23:16:37.828Z,2.60
2022-10-09T23:19:07.305Z,2.40
2022-10-09T23:21:37.603Z,2.13
2022-10-09T23:24:06.765Z,2.20
2022-10-09T23:26:38.037Z,2.03
2022-10-09T23:29:09.324Z,1.93
2022-10-09T23:31:37.817Z,2.00
2022-10-09T23:34:07.976Z,1.77
2022-10-09T23:36:36.565Z,1.77
2022-10-09T23:39:07.849Z,2.00
2022-10-09T23:41:39.075Z,2.37
2022-10-09T23:44:07.355Z,2.10
2022-10-09T23:46:37.562Z,2.23
2022-10-09T23:49:06.099Z,2.63
2022-10-09T23:51:34.307Z,1.90
2022-10-09T23:54:02.731Z,1.93
2022-10-09T23:56:33.134Z,1.93
2022-10-09T23:59:06.114Z,2.23
